createdAt,value
2022-07-29T00:02:37.821Z,1.80
2022-07-29T00:08:42.963Z,1.80
2022-07-29T00:14:46.666Z,2.00
2022-07-29T00:20:52.198Z,1.83
2022-07-29T00:26:57.181Z,1.70
2022-07-29T00:33:00.799Z,1.75
2022-07-29T00:39:05.098Z,1.70
2022-07-29T00:45:11.006Z,2.05
2022-07-29T00:51:15.217Z,1.83
2022-07-29T00:57:18.931Z,1.80
2022-07-29T01:03:24.136Z,1.70
2022-07-29T01:09:34.992Z,2.10
2022-07-29T01:15:56.859Z,1.95
2022-07-29T01:22:15.934Z,1.70
2022-07-29T01:28:42.534Z,1.80
2022-07-29T01:34:52.624Z,2.28
2022-07-29T01:41:03.536Z,2.03
2022-07-29T01:47:16.264Z,1.80
2022-07-29T01:53:29.097Z,1.60
2022-07-29T01:59:43.082Z,1.92
2022-07-29T02:05:50.587Z,2.10
2022-07-29T02:11:56.794Z,2.08
2022-07-29T02:18:04.254Z,2.00
2022-07-29T02:24:12.615Z,1.92
2022-07-29T02:30:16.646Z,2.05
2022-07-29T02:36:23.445Z,1.90
2022-07-29T02:42:30.747Z,2.10
2022-07-29T02:48:39.606Z,1.88
2022-07-29T02:54:47.106Z,2.13
2022-07-29T03:00:53.871Z,1.90
2022-07-29T03:07:01.839Z,2.10
2022-07-29T03:13:07.468Z,1.90
2022-07-29T03:19:13.074Z,1.88
2022-07-29T03:25:18.110Z,2.25
2022-07-29T03:31:21.814Z,2.00
2022-07-29T03:37:26.875Z,2.00
2022-07-29T03:43:33.135Z,1.60
2022-07-29T03:49:39.812Z,2.40
2022-07-29T03:55:47.827Z,2.38
2022-07-29T04:01:52.354Z,2.08
2022-07-29T04:14:00.600Z,1.92
2022-07-29T04:20:04.504Z,2.00
2022-07-29T04:26:10.657Z,2.40
2022-07-29T04:32:15.840Z,2.05
2022-07-29T04:38:19.434Z,2.22
2022-07-29T04:44:28.452Z,1.93
2022-07-29T04:50:34.068Z,2.05
2022-07-29T04:56:37.628Z,1.80
2022-07-29T05:02:41.471Z,1.93
2022-07-29T05:08:46.548Z,1.77
2022-07-29T05:14:50.079Z,1.80
2022-07-29T05:20:53.899Z,2.03
2022-07-29T05:26:58.863Z,2.30
2022-07-29T05:33:02.383Z,2.25
2022-07-29T05:39:05.910Z,2.10
2022-07-29T05:45:11.921Z,1.80
2022-07-29T05:51:15.494Z,2.00
2022-07-29T05:57:19.733Z,1.93
2022-07-29T06:03:24.677Z,1.85
2022-07-29T06:09:29.319Z,2.08
2022-07-29T06:15:33.018Z,2.20
2022-07-29T06:21:38.700Z,1.90
2022-07-29T06:27:45.762Z,2.03
2022-07-29T06:33:49.366Z,1.73
2022-07-29T06:40:14.338Z,2.00
2022-07-29T06:46:18.900Z,1.73
2022-07-29T06:52:22.561Z,1.83
2022-07-29T06:58:28.172Z,1.77
2022-07-29T07:04:31.762Z,1.50
2022-07-29T07:10:35.934Z,1.63
2022-07-29T07:16:40.933Z,1.80
2022-07-29T07:22:44.678Z,1.35
2022-07-29T07:28:48.217Z,1.70
2022-07-29T07:34:53.177Z,1.50
2022-07-29T07:40:56.804Z,1.60
2022-07-29T07:47:08.458Z,1.40
2022-07-29T07:53:14.106Z,1.42
2022-07-29T07:59:17.829Z,1.20
2022-07-29T08:05:23.790Z,1.40
2022-07-29T08:11:28.925Z,1.50
2022-07-29T08:17:37.723Z,1.50
2022-07-29T08:23:50.582Z,1.60
2022-07-29T08:29:59.598Z,1.48
2022-07-29T08:36:03.370Z,1.60
2022-07-29T08:42:08.031Z,1.50
2022-07-29T08:48:13.979Z,1.30
2022-07-29T08:54:20.441Z,1.38
2022-07-29T09:00:25.650Z,1.05
2022-07-29T09:06:35.001Z,1.10
2022-07-29T09:12:39.013Z,1.30
2022-07-29T09:18:44.076Z,1.60
2022-07-29T09:24:49.611Z,1.40
2022-07-29T09:30:54.980Z,1.30
2022-07-29T09:36:58.913Z,1.40
2022-07-29T09:43:12.458Z,1.35
2022-07-29T09:49:18.887Z,1.25
2022-07-29T09:55:22.550Z,1.23
2022-07-29T10:01:31.469Z,1.63
2022-07-29T10:07:53.487Z,1.25
2022-07-29T10:13:57.662Z,1.50
2022-07-29T10:20:02.848Z,1.48
2022-07-29T10:26:06.972Z,1.70
2022-07-29T10:32:32.874Z,1.63
2022-07-29T10:38:53.428Z,1.48
2022-07-29T10:44:59.160Z,1.52
2022-07-29T10:51:05.516Z,1.40
2022-07-29T10:57:20.751Z,1.35
2022-07-29T11:03:49.468Z,1.58
2022-07-29T11:10:26.977Z,1.70
2022-07-29T11:17:06.926Z,1.30
2022-07-29T11:23:26.275Z,1.42
2022-07-29T11:29:30.626Z,1.67
2022-07-29T11:35:38.355Z,1.30
2022-07-29T11:41:44.659Z,1.52
2022-07-29T11:47:53.702Z,1.40
2022-07-29T11:54:04.255Z,1.55
2022-07-29T12:00:12.690Z,1.30
2022-07-29T12:06:21.032Z,1.60
2022-07-29T12:12:26.206Z,1.55
2022-07-29T12:18:29.747Z,1.38
2022-07-29T12:24:45.460Z,1.35
2022-07-29T12:30:52.959Z,1.50
2022-07-29T12:36:56.793Z,1.25
2022-07-29T12:43:11.458Z,1.50
2022-07-29T12:49:24.872Z,1.27
2022-07-29T12:55:42.060Z,1.20
2022-07-29T13:01:48.131Z,1.38
2022-07-29T13:07:55.562Z,1.23
2022-07-29T13:14:06.816Z,1.30
2022-07-29T13:20:15.189Z,1.33
2022-07-29T13:26:20.768Z,1.02
2022-07-29T13:32:28.516Z,1.27
2022-07-29T13:38:32.548Z,1.33
2022-07-29T13:44:37.631Z,1.38
2022-07-29T13:50:41.141Z,1.20
2022-07-29T13:56:44.717Z,1.27
2022-07-29T14:02:51.381Z,1.17
2022-07-29T14:08:54.958Z,1.50
2022-07-29T14:14:58.542Z,1.60
2022-07-29T14:21:03.757Z,1.30
2022-07-29T14:27:07.678Z,1.50
2022-07-29T14:39:16.754Z,1.35
2022-07-29T14:45:20.287Z,1.42
2022-07-29T14:51:23.851Z,1.58
2022-07-29T14:57:37.274Z,1.67
2022-07-29T15:03:40.871Z,1.98
2022-07-29T15:09:49.535Z,2.33
2022-07-29T15:15:59.930Z,1.98
2022-07-29T15:22:05.880Z,1.70
2022-07-29T15:28:09.877Z,1.90
2022-07-29T15:34:14.834Z,2.65
2022-07-29T15:40:18.472Z,3.67
2022-07-29T15:46:40.070Z,2.85
2022-07-29T15:52:45.194Z,2.05
2022-07-29T15:58:48.821Z,1.83
2022-07-29T16:04:52.601Z,1.88
2022-07-29T16:10:57.720Z,1.90
2022-07-29T16:17:03.838Z,1.70
2022-07-29T16:23:09.494Z,1.45
2022-07-29T16:29:15.074Z,1.40
2022-07-29T16:35:19.323Z,1.20
2022-07-29T16:41:22.935Z,1.58
2022-07-29T16:47:27.934Z,1.10
2022-07-29T16:53:31.455Z,1.10
2022-07-29T16:59:35.274Z,1.05
2022-07-29T17:05:50.775Z,1.00
2022-07-29T17:11:57.656Z,1.38
2022-07-29T17:18:03.172Z,1.45
2022-07-29T17:24:17.774Z,1.20
2022-07-29T17:30:21.346Z,1.20
2022-07-29T17:36:24.885Z,1.10
2022-07-29T17:42:29.801Z,1.40
2022-07-29T17:48:33.342Z,1.10
2022-07-29T17:54:36.921Z,1.48
2022-07-29T18:00:42.214Z,1.67
2022-07-29T18:06:45.859Z,1.20
2022-07-29T18:12:49.471Z,1.40
2022-07-29T18:18:54.776Z,1.52
2022-07-29T18:24:58.389Z,1.63
2022-07-29T18:31:02.492Z,1.55
2022-07-29T18:37:07.831Z,1.77
2022-07-29T18:43:12.319Z,2.33
2022-07-29T18:49:16.348Z,1.80
2022-07-29T18:55:21.891Z,1.85
2022-07-29T19:01:25.628Z,1.50
2022-07-29T19:07:36.151Z,1.60
2022-07-29T19:13:41.471Z,1.60
2022-07-29T19:19:45.125Z,1.92
2022-07-29T19:25:53.511Z,1.80
2022-07-29T19:32:00.355Z,1.98
2022-07-29T19:38:07.350Z,2.30
2022-07-29T19:44:11.457Z,2.33
2022-07-29T19:50:17.294Z,1.83
2022-07-29T19:56:21.208Z,2.05
2022-07-29T20:08:29.554Z,2.10
2022-07-29T20:14:33.140Z,1.88
2022-07-29T20:20:38.173Z,2.00
2022-07-29T20:26:43.996Z,1.83
2022-07-29T20:32:50.948Z,1.80
2022-07-29T20:39:00.641Z,1.92
2022-07-29T20:45:09.165Z,1.65
2022-07-29T20:51:17.041Z,1.90
2022-07-29T20:57:38.479Z,1.90
2022-07-29T21:03:45.192Z,1.92
2022-07-29T21:09:48.749Z,1.90
2022-07-29T21:15:56.845Z,1.67
2022-07-29T21:22:02.017Z,1.77
2022-07-29T21:28:23.214Z,1.83
2022-07-29T21:34:28.111Z,1.65
2022-07-29T21:40:33.135Z,1.70
2022-07-29T21:46:36.824Z,1.73
2022-07-29T21:52:40.445Z,1.83
2022-07-29T21:58:45.402Z,1.75
2022-07-29T22:04:49.031Z,1.52
2022-07-29T22:10:52.644Z,1.38
2022-07-29T22:16:58.001Z,1.52
2022-07-29T22:23:02.015Z,1.60
2022-07-29T22:29:05.609Z,1.50
2022-07-29T22:35:10.964Z,1.58
2022-07-29T22:41:15.585Z,1.83
2022-07-29T22:47:19.290Z,1.58
2022-07-29T22:53:44.198Z,1.60
2022-07-29T22:59:47.785Z,1.48
2022-07-29T23:05:52.446Z,1.30
2022-07-29T23:11:57.400Z,1.27
2022-07-29T23:18:00.988Z,1.35
2022-07-29T23:24:04.681Z,1.20
2022-07-29T23:30:11.020Z,1.55
2022-07-29T23:36:14.541Z,1.45
2022-07-29T23:42:18.081Z,1.52
2022-07-29T23:48:23.024Z,1.38
2022-07-29T23:54:26.591Z,1.45
